createdAt,value
2023-03-12T00:00:38.211Z,59.96
2023-03-12T00:05:29.268Z,61.05
2023-03-12T00:10:22.869Z,60.06
2023-03-12T00:15:14.009Z,60.11
2023-03-12T00:20:07.450Z,60.13
2023-03-12T00:24:59.066Z,60.21
2023-03-12T00:29:53.337Z,59.63
2023-03-12T00:34:44.283Z,59.67
2023-03-12T00:39:36.022Z,59.13
2023-03-12T00:44:31.023Z,58.98
2023-03-12T00:49:24.219Z,58.94
2023-03-12T00:54:14.418Z,60.02
2023-03-12T00:59:05.083Z,59.78
2023-03-12T01:03:56.132Z,59.72
2023-03-12T01:08:50.384Z,60.26
2023-03-12T01:13:42.406Z,59.54
2023-03-12T01:18:33.156Z,59.66
2023-03-12T01:23:26.748Z,59.41
2023-03-12T01:28:24.283Z,59.81
2023-03-12T01:33:15.235Z,59.72
2023-03-12T01:38:06.791Z,59.89
2023-03-12T01:42:58.137Z,58.88
2023-03-12T01:47:51.486Z,58.42
2023-03-12T01:52:43.003Z,58.20
2023-03-12T01:57:38.293Z,58.33
2023-03-12T02:02:30.264Z,57.58
2023-03-12T02:07:27.129Z,58.75
2023-03-12T02:12:18.563Z,58.27
2023-03-12T02:17:10.781Z,58.55
2023-03-12T02:22:02.389Z,58.59
2023-03-12T02:26:56.551Z,58.79
2023-03-12T02:31:52.301Z,58.41
2023-03-12T02:36:45.952Z,58.65
2023-03-12T02:41:38.864Z,58.47
2023-03-12T02:46:34.001Z,58.19
2023-03-12T02:51:25.130Z,58.65
2023-03-12T02:56:15.496Z,58.71
2023-03-12T03:01:05.705Z,58.67
2023-03-12T03:06:00.575Z,59.15
2023-03-12T03:10:53.776Z,60.37
2023-03-12T03:15:44.361Z,60.44
2023-03-12T03:20:36.990Z,61.70
2023-03-12T03:25:31.007Z,61.88
2023-03-12T03:30:24.875Z,61.61
2023-03-12T03:35:17.895Z,62.56
2023-03-12T03:40:12.272Z,62.81
2023-03-12T03:45:06.590Z,63.49
2023-03-12T03:49:57.285Z,63.35
2023-03-12T03:54:53.759Z,63.17
2023-03-12T03:59:45.326Z,63.14
2023-03-12T04:04:39.046Z,62.74
2023-03-12T04:09:32.412Z,61.94
2023-03-12T04:14:24.447Z,63.25
2023-03-12T04:19:16.706Z,64.78
2023-03-12T04:24:16.719Z,66.10
2023-03-12T04:29:08.410Z,66.13
2023-03-12T04:33:59.892Z,68.05
2023-03-12T04:38:52.075Z,66.02
2023-03-12T04:43:49.228Z,69.66
2023-03-12T04:48:41.709Z,67.46
2023-03-12T04:53:34.046Z,68.52
2023-03-12T04:58:25.942Z,67.97
2023-03-12T05:03:21.589Z,70.02
2023-03-12T05:08:12.345Z,71.03
2023-03-12T05:13:06.648Z,68.42
2023-03-12T05:17:58.190Z,70.24
2023-03-12T05:22:52.483Z,72.37
2023-03-12T05:27:47.709Z,70.40
2023-03-12T05:32:42.035Z,72.77
2023-03-12T05:37:33.125Z,72.83
2023-03-12T05:42:27.636Z,71.99
2023-03-12T05:47:19.554Z,72.33
2023-03-12T05:52:10.003Z,71.84
2023-03-12T05:56:59.887Z,72.42
2023-03-12T06:01:55.083Z,74.52
2023-03-12T06:06:46.057Z,76.42
2023-03-12T06:11:38.241Z,75.96
2023-03-12T06:16:31.022Z,74.34
2023-03-12T06:21:28.563Z,74.00
2023-03-12T06:26:21.594Z,79.77
2023-03-12T06:31:12.694Z,72.96
2023-03-12T06:36:05.801Z,76.55
2023-03-12T06:41:07.026Z,75.54
2023-03-12T06:45:57.702Z,79.83
2023-03-12T06:50:47.330Z,78.26
2023-03-12T06:55:37.324Z,79.39
2023-03-12T07:00:30.112Z,77.67
2023-03-12T07:05:20.628Z,79.60
2023-03-12T07:10:13.625Z,79.33
2023-03-12T07:15:06.812Z,75.95
2023-03-12T07:20:00.885Z,77.15
2023-03-12T07:24:51.757Z,76.09
2023-03-12T07:29:45.796Z,79.47
2023-03-12T07:34:37.150Z,80.58
2023-03-12T07:39:30.619Z,81.74
2023-03-12T07:44:22.477Z,80.30
2023-03-12T07:49:17.915Z,80.63
2023-03-12T07:54:10.426Z,82.58
2023-03-12T07:59:03.221Z,82.37
2023-03-12T08:03:57.948Z,88.27
2023-03-12T08:08:50.695Z,79.99
2023-03-12T08:13:44.423Z,81.20
2023-03-12T08:18:37.801Z,88.30
2023-03-12T08:23:29.219Z,86.57
2023-03-12T08:28:20.956Z,93.85
2023-03-12T08:33:12.048Z,92.78
2023-03-12T08:38:05.597Z,91.62
2023-03-12T08:42:57.309Z,92.34
2023-03-12T08:47:48.131Z,95.08
2023-03-12T08:52:39.275Z,95.58
2023-03-12T08:57:32.225Z,99.08
2023-03-12T09:02:24.281Z,97.59
2023-03-12T09:07:18.217Z,98.65
2023-03-12T09:12:09.268Z,95.76
2023-03-12T09:17:07.236Z,87.19
2023-03-12T09:21:58.288Z,92.05
2023-03-12T09:27:01.226Z,98.91
2023-03-12T09:31:53.971Z,99.98
2023-03-12T09:36:49.567Z,98.54
2023-03-12T09:41:42.235Z,100.00
2023-03-12T09:46:37.821Z,100.00
2023-03-12T09:51:32.722Z,100.00
2023-03-12T09:56:28.489Z,100.00
2023-03-12T10:01:26.021Z,100.00
2023-03-12T10:06:20.157Z,100.00
2023-03-12T10:11:20.456Z,100.00
2023-03-12T10:16:20.558Z,100.00
2023-03-12T10:21:19.898Z,100.00
2023-03-12T10:26:27.114Z,96.67
2023-03-12T10:31:23.501Z,95.70
2023-03-12T10:36:18.488Z,94.59
2023-03-12T10:41:15.648Z,95.84
2023-03-12T10:46:14.143Z,90.95
2023-03-12T10:51:17.212Z,86.89
2023-03-12T10:56:11.965Z,94.49
2023-03-12T11:01:03.695Z,95.11
2023-03-12T11:05:59.811Z,92.53
2023-03-12T11:10:53.890Z,90.22
2023-03-12T11:15:48.962Z,89.49
2023-03-12T11:20:42.935Z,89.14
2023-03-12T11:25:33.864Z,88.52
2023-03-12T11:30:31.405Z,90.76
2023-03-12T11:35:27.203Z,93.01
2023-03-12T11:40:33.946Z,89.56
2023-03-12T11:45:30.292Z,89.80
2023-03-12T11:50:30.548Z,87.84
2023-03-12T11:55:31.479Z,85.86
2023-03-12T12:00:25.623Z,86.09
2023-03-12T12:05:29.309Z,83.07
2023-03-12T12:10:26.227Z,83.39
2023-03-12T12:15:22.957Z,83.70
2023-03-12T12:20:26.089Z,83.63
2023-03-12T12:25:25.918Z,81.64
2023-03-12T12:30:24.316Z,80.56
2023-03-12T12:35:30.554Z,80.85
2023-03-12T12:40:29.617Z,80.22
2023-03-12T12:45:21.200Z,79.95
2023-03-12T12:50:18.525Z,79.33
2023-03-12T12:55:17.437Z,77.70
2023-03-12T13:00:18.338Z,77.14
2023-03-12T13:05:20.998Z,76.76
2023-03-12T13:10:48.789Z,75.32
2023-03-12T13:16:15.453Z,73.92
2023-03-12T13:21:19.420Z,79.53
2023-03-12T13:26:19.979Z,75.84
2023-03-12T13:31:25.742Z,75.19
2023-03-12T13:36:27.724Z,74.07
2023-03-12T13:41:33.354Z,73.68
2023-03-12T13:46:40.831Z,73.96
2023-03-12T13:51:35.182Z,72.99
2023-03-12T13:56:31.606Z,71.57
2023-03-12T14:01:23.959Z,71.18
2023-03-12T14:06:17.039Z,69.77
2023-03-12T14:11:21.637Z,68.57
2023-03-12T14:16:17.697Z,70.57
2023-03-12T14:21:12.821Z,70.15
2023-03-12T14:26:07.486Z,72.49
2023-03-12T14:31:03.577Z,72.88
2023-03-12T14:35:59.319Z,72.21
2023-03-12T14:40:57.069Z,71.48
2023-03-12T14:45:47.643Z,66.76
2023-03-12T14:50:44.044Z,68.81
2023-03-12T14:55:35.033Z,72.31
2023-03-12T15:00:33.085Z,71.52
2023-03-12T15:05:27.305Z,72.14
2023-03-12T15:10:36.049Z,73.64
2023-03-12T15:15:39.703Z,73.82
2023-03-12T15:20:36.450Z,74.13
2023-03-12T15:25:39.372Z,74.13
2023-03-12T15:30:38.473Z,74.76
2023-03-12T15:35:29.841Z,73.59
2023-03-12T15:40:41.246Z,78.42
2023-03-12T15:45:39.552Z,77.37
2023-03-12T15:50:37.215Z,79.08
2023-03-12T15:55:34.770Z,78.01
2023-03-12T16:00:27.884Z,76.39
2023-03-12T16:05:24.513Z,78.03
2023-03-12T16:10:18.383Z,78.08
2023-03-12T16:15:19.234Z,78.23
2023-03-12T16:20:18.354Z,77.32
2023-03-12T16:25:20.037Z,77.84
2023-03-12T16:30:25.846Z,79.44
2023-03-12T16:35:27.589Z,79.07
2023-03-12T16:40:33.388Z,80.17
2023-03-12T16:45:28.987Z,78.75
2023-03-12T16:50:19.855Z,79.85
2023-03-12T16:55:10.112Z,80.57
2023-03-12T17:00:08.969Z,79.43
2023-03-12T17:05:01.143Z,79.38
2023-03-12T17:09:52.705Z,78.70
2023-03-12T17:14:46.149Z,78.58
2023-03-12T17:19:41.808Z,78.08
2023-03-12T17:24:34.346Z,78.83
2023-03-12T17:29:25.195Z,78.54
2023-03-12T17:34:18.556Z,77.71
2023-03-12T17:39:15.107Z,79.53
2023-03-12T17:44:07.900Z,79.11
2023-03-12T17:49:02.067Z,80.19
2023-03-12T17:53:53.410Z,80.04
2023-03-12T17:58:56.544Z,79.83
2023-03-12T18:03:47.557Z,80.77
2023-03-12T18:08:38.754Z,80.39
2023-03-12T18:13:28.982Z,80.81
2023-03-12T18:18:24.031Z,80.73
2023-03-12T18:23:13.759Z,81.39
2023-03-12T18:28:05.863Z,79.29
2023-03-12T18:32:59.434Z,80.51
2023-03-12T18:37:52.754Z,81.27
2023-03-12T18:42:44.778Z,80.48
2023-03-12T18:47:36.397Z,79.19
2023-03-12T18:52:27.326Z,79.33
2023-03-12T18:57:22.001Z,79.27
2023-03-12T19:02:13.159Z,78.96
2023-03-12T19:07:06.074Z,79.57
2023-03-12T19:11:57.112Z,78.68
2023-03-12T19:16:51.860Z,77.42
2023-03-12T19:21:42.664Z,77.45
2023-03-12T19:26:35.838Z,78.76
2023-03-12T19:31:27.087Z,79.55
2023-03-12T19:36:20.547Z,79.80
2023-03-12T19:41:11.915Z,77.93
2023-03-12T19:46:03.256Z,78.37
2023-03-12T19:50:53.953Z,79.04
2023-03-12T19:55:50.162Z,77.60
2023-03-12T20:00:51.043Z,79.17
2023-03-12T20:05:49.084Z,79.37
2023-03-12T20:10:42.260Z,78.48
2023-03-12T20:15:41.667Z,78.10
2023-03-12T20:20:34.112Z,78.06
2023-03-12T20:25:26.860Z,78.07
2023-03-12T20:30:18.305Z,78.39
2023-03-12T20:35:15.792Z,78.88
2023-03-12T20:40:12.522Z,78.38
2023-03-12T20:45:04.355Z,78.21
2023-03-12T20:49:58.410Z,78.35
2023-03-12T20:54:54.783Z,78.61
2023-03-12T20:59:46.239Z,77.95
2023-03-12T21:04:37.309Z,78.50
2023-03-12T21:09:28.654Z,77.12
2023-03-12T21:14:22.296Z,77.10
2023-03-12T21:19:15.901Z,77.83
2023-03-12T21:24:09.186Z,77.41
2023-03-12T21:29:01.994Z,77.12
2023-03-12T21:33:57.059Z,78.55
2023-03-12T21:38:49.945Z,77.11
2023-03-12T21:43:40.957Z,78.29
2023-03-12T21:48:33.265Z,77.04
2023-03-12T21:53:27.947Z,76.51
2023-03-12T21:58:18.817Z,79.36
2023-03-12T22:03:09.209Z,80.52
2023-03-12T22:08:01.980Z,79.41
2023-03-12T22:12:56.590Z,77.35
2023-03-12T22:17:47.457Z,81.57
2023-03-12T22:22:43.029Z,79.54
2023-03-12T22:27:34.377Z,81.73
2023-03-12T22:32:27.985Z,82.40
2023-03-12T22:37:26.017Z,82.91
2023-03-12T22:42:19.660Z,82.76
2023-03-12T22:47:16.120Z,80.38
2023-03-12T22:52:09.639Z,80.47
2023-03-12T22:57:04.817Z,83.37
2023-03-12T23:01:55.948Z,83.85
2023-03-12T23:06:46.770Z,81.16
2023-03-12T23:11:48.434Z,81.17
2023-03-12T23:16:42.132Z,80.98
2023-03-12T23:21:34.750Z,87.29
2023-03-12T23:26:27.145Z,85.60
2023-03-12T23:31:23.731Z,88.56
2023-03-12T23:36:15.787Z,84.41
2023-03-12T23:41:06.445Z,85.78
2023-03-12T23:45:58.549Z,86.98
2023-03-12T23:50:54.311Z,87.05
2023-03-12T23:55:46.078Z,90.18
